»·PEaware :: AAL1953 KBOI-KSEA

AAL1953 :: KBOI-KSEA

FLIGHT INFORMATION

Flight Status: Arrived
Operator:
American Airlines
More flights by this operator :: More flights under this callsign
Pilot: Max W. (2591)
Aircraft: BOEING 727-100
(B721)
More flights by this aircraft type
Origin: KBOI Boise Air Terminal/Gowen
United States
Destination: KSEA Seattle-Tacoma Intl
United States
More flights between these airports :: More routes between these airports
Route: BOI J54 BKE YKM CHINS3
File this flight plan on PilotEdge
Remarks:
Altitude:
(Current/Filed)
30,000ft
Speed:
(Current/Filed)
450kts
Departed: 25-Aug-18 06:49 PM
Arrived: 25-Aug-18 07:48 PM
Distance/Time
Traveled:
346nm/0:58
Distance/Time
To Go:
Arrived

Flight Plot

Page will automatically refresh every two minutes.

Flight plan parsing failed; only flown route is shown


Map Options




Map Legend


Flown Route
Filed Route
Departure Airport
Arrival Airport
Navaid (VOR, NDB)
Fix

Horizontal Profiles

Position Reports

Time Latitude Longitude Heading Altitude Ground
Speed
25-Aug-18 18:42 43.566731 -116.219273 22 2860ft 0kts
25-Aug-18 18:43 43.566731 -116.219273 22 2860ft 0kts
25-Aug-18 18:44 43.566731 -116.219273 22 2860ft 0kts
25-Aug-18 18:45 43.566731 -116.219273 22 2860ft 0kts
25-Aug-18 18:46 43.566641 -116.219330 27 2860ft 2kts
25-Aug-18 18:47 43.566102 -116.219688 25 2860ft 2kts
25-Aug-18 18:48 43.566012 -116.219747 23 2860ft 0kts
25-Aug-18 18:49 43.565194 -116.217361 154 2864ft 26kts
25-Aug-18 18:50 43.560864 -116.206132 114 2873ft 44kts
25-Aug-18 18:51 43.559331 -116.204957 295 2873ft 44kts
25-Aug-18 18:52 43.576636 -116.257783 297 5339ft 173kts
25-Aug-18 18:53 43.602408 -116.335395 297 7775ft 273kts
25-Aug-18 18:54 43.636493 -116.434725 297 11341ft 319kts
25-Aug-18 18:55 43.688340 -116.528768 343 15170ft 322kts
25-Aug-18 18:56 43.774319 -116.567220 344 18597ft 334kts
25-Aug-18 18:57 43.863648 -116.605888 345 21456ft 346kts
25-Aug-18 18:58 43.949269 -116.673314 327 23601ft 375kts
25-Aug-18 18:59 44.026836 -116.762761 324 25936ft 381kts
25-Aug-18 19:00 44.104683 -116.859387 324 27731ft 393kts
25-Aug-18 19:01 44.185676 -116.960470 324 29387ft 404kts
25-Aug-18 19:02 44.268317 -117.065282 324 30060ft 434kts
25-Aug-18 19:03 44.360317 -117.182938 324 30052ft 463kts
25-Aug-18 19:04 44.456384 -117.306500 323 30049ft 477kts
25-Aug-18 19:05 44.552481 -117.430976 323 30047ft 471kts
25-Aug-18 19:06 44.647987 -117.555270 323 30046ft 473kts
25-Aug-18 19:07 44.742475 -117.678876 322 30040ft 475kts
25-Aug-18 19:08 44.835887 -117.797238 326 30042ft 467kts
25-Aug-18 19:09 44.930405 -117.922611 321 30040ft 476kts
25-Aug-18 19:10 45.020944 -118.054108 320 30035ft 474kts
25-Aug-18 19:11 45.108524 -118.183333 321 30045ft 469kts
25-Aug-18 19:12 45.198936 -118.314924 320 30052ft 475kts
25-Aug-18 19:13 45.287426 -118.446775 320 30050ft 479kts
25-Aug-18 19:14 45.378191 -118.583135 320 30049ft 479kts
25-Aug-18 19:15 45.463853 -118.713878 318 30045ft 481kts
25-Aug-18 19:16 45.552498 -118.849418 319 30043ft 478kts
25-Aug-18 19:17 45.641841 -118.985657 319 30042ft 475kts
25-Aug-18 19:18 45.730681 -119.121777 319 30043ft 473kts
25-Aug-18 19:19 45.819132 -119.258139 319 30041ft 472kts
25-Aug-18 19:20 45.906795 -119.393968 319 30042ft 473kts
25-Aug-18 19:21 45.994835 -119.530949 319 30042ft 474kts
25-Aug-18 19:22 46.079924 -119.664037 318 30037ft 476kts
25-Aug-18 19:23 46.164564 -119.796740 319 30049ft 476kts
25-Aug-18 19:24 46.249782 -119.931498 318 30049ft 478kts
25-Aug-18 19:25 46.319290 -120.041870 319 29994ft 458kts
25-Aug-18 19:26 46.414520 -120.193717 319 28587ft 447kts
25-Aug-18 19:27 46.481522 -120.301031 318 26795ft 435kts
25-Aug-18 19:28 46.559248 -120.440042 307 24547ft 428kts
25-Aug-18 19:29 46.611197 -120.556113 310 23078ft 417kts
25-Aug-18 19:30 46.677995 -120.697124 308 20093ft 454kts
25-Aug-18 19:31 46.748842 -120.845667 308 17922ft 444kts
25-Aug-18 19:32 46.803569 -120.959607 308 16409ft 435kts
25-Aug-18 19:33 46.872666 -121.103806 307 16046ft 455kts
25-Aug-18 19:34 46.944646 -121.254902 307 16044ft 474kts
25-Aug-18 19:35 47.016657 -121.410638 306 16032ft 459kts
25-Aug-18 19:36 47.078863 -121.565914 301 16042ft 447kts
25-Aug-18 19:37 47.132619 -121.710337 310 13994ft 426kts
25-Aug-18 19:38 47.200716 -121.837917 309 13111ft 413kts
25-Aug-18 19:39 47.265071 -121.965490 308 11933ft 417kts
25-Aug-18 19:40 47.333429 -122.102670 308 11928ft 447kts
25-Aug-18 19:41 47.414990 -122.196389 354 10082ft 402kts
25-Aug-18 19:42 47.505476 -122.203002 357 9369ft 272kts
25-Aug-18 19:43 47.574973 -122.207363 357 6912ft 220kts
25-Aug-18 19:44 47.632347 -122.216626 322 4435ft 214kts
25-Aug-18 19:45 47.635524 -122.298200 229 3946ft 235kts
25-Aug-18 19:46 47.573936 -122.308290 185 2427ft 228kts
25-Aug-18 19:47 47.510745 -122.310051 183 1315ft 209kts
25-Aug-18 19:48 47.465655 -122.310959 181 435ft 143kts
25-Aug-18 19:49 47.446707 -122.309428 155 360ft 0kts

Navigation Log

Ident Type
Flight plan parsing failed, navigation log unavailable